Terminal Aerodrome Forecast
Issued by NWS

Home | Current Version | Previous Version | Text Only | Print | Product List | Glossary On
Versions: 1 2 3 4 5 6 7 8 9 10 11 12 13 14 15 16 17 18
000
FTUS45 KBOU 191130
TAFBJC
TAF
KBJC 191130Z 1912/2012 28005KT P6SM SKC
     FM191500 VRB04KT P6SM FEW200
     FM191900 07005KT P6SM FEW100
     FM200100 30005KT P6SM SCT110 BKN200
     FM200400 25005KT P6SM FEW110 SCT200=

USA.gov is the U.S. government's official web portal to all federal, state and local government web resources and services.